sensor_id;sensor_type;location;lat;lon;timestamp;P1;durP1;ratioP1;P2;durP2;ratioP2
42134;SDS011;28312;43.460;11.810;2022-10-20T00:03:45;3.55;;;1.30;;
42134;SDS011;28312;43.460;11.810;2022-10-20T00:07:49;3.45;;;1.50;;
42134;SDS011;28312;43.460;11.810;2022-10-20T00:11:53;1.95;;;1.23;;
42134;SDS011;28312;43.460;11.810;2022-10-20T00:15:57;2.50;;;1.40;;
42134;SDS011;28312;43.460;11.810;2022-10-20T00:20:02;1.50;;;0.95;;
42134;SDS011;28312;43.460;11.810;2022-10-20T00:24:06;3.03;;;1.27;;
42134;SDS011;28312;43.460;11.810;2022-10-20T00:28:10;2.33;;;1.30;;
42134;SDS011;28312;43.460;11.810;2022-10-20T00:32:14;3.20;;;1.60;;
42134;SDS011;28312;43.460;11.810;2022-10-20T00:36:18;2.30;;;1.17;;
42134;SDS011;28312;43.460;11.810;2022-10-20T00:40:23;3.37;;;1.70;;
42134;SDS011;28312;43.460;11.810;2022-10-20T00:48:53;2.17;;;1.02;;
42134;SDS011;28312;43.460;11.810;2022-10-20T00:52:59;1.70;;;0.70;;
42134;SDS011;28312;43.460;11.810;2022-10-20T00:57:04;2.42;;;1.10;;
42134;SDS011;28312;43.460;11.810;2022-10-20T01:01:08;1.85;;;0.98;;
42134;SDS011;28312;43.460;11.810;2022-10-20T01:05:17;1.67;;;0.90;;
42134;SDS011;28312;43.460;11.810;2022-10-20T01:09:21;2.20;;;1.30;;
42134;SDS011;28312;43.460;11.810;2022-10-20T01:13:30;2.00;;;1.10;;
42134;SDS011;28312;43.460;11.810;2022-10-20T01:22:21;2.65;;;1.38;;
42134;SDS011;28312;43.460;11.810;2022-10-20T01:31:04;1.90;;;1.20;;
42134;SDS011;28312;43.460;11.810;2022-10-20T01:43:46;3.13;;;1.05;;
42134;SDS011;28312;43.460;11.810;2022-10-20T01:47:51;1.67;;;0.90;;
42134;SDS011;28312;43.460;11.810;2022-10-20T01:51:56;2.78;;;1.02;;
42134;SDS011;28312;43.460;11.810;2022-10-20T01:56:00;2.03;;;1.08;;
42134;SDS011;28312;43.460;11.810;2022-10-20T02:00:09;0.93;;;0.60;;
42134;SDS011;28312;43.460;11.810;2022-10-20T02:04:14;5.82;;;1.33;;
42134;SDS011;28312;43.460;11.810;2022-10-20T02:08:29;2.00;;;0.80;;
42134;SDS011;28312;43.460;11.810;2022-10-20T02:12:40;1.45;;;0.70;;
42134;SDS011;28312;43.460;11.810;2022-10-20T02:16:47;1.20;;;0.70;;
42134;SDS011;28312;43.460;11.810;2022-10-20T02:21:04;1.70;;;0.88;;
42134;SDS011;28312;43.460;11.810;2022-10-20T02:25:09;2.03;;;1.00;;
42134;SDS011;28312;43.460;11.810;2022-10-20T02:29:15;2.28;;;1.10;;
42134;SDS011;28312;43.460;11.810;2022-10-20T02:33:22;1.77;;;1.00;;
42134;SDS011;28312;43.460;11.810;2022-10-20T02:37:26;2.63;;;1.05;;
42134;SDS011;28312;43.460;11.810;2022-10-20T02:41:30;0.98;;;0.60;;
42134;SDS011;28312;43.460;11.810;2022-10-20T02:45:33;2.22;;;1.00;;
42134;SDS011;28312;43.460;11.810;2022-10-20T02:49:37;1.60;;;0.80;;
42134;SDS011;28312;43.460;11.810;2022-10-20T02:53:41;3.13;;;1.58;;
42134;SDS011;28312;43.460;11.810;2022-10-20T02:57:45;2.38;;;1.20;;
42134;SDS011;28312;43.460;11.810;2022-10-20T03:01:49;1.90;;;0.80;;
42134;SDS011;28312;43.460;11.810;2022-10-20T03:05:54;2.67;;;1.20;;
42134;SDS011;28312;43.460;11.810;2022-10-20T03:09:58;1.77;;;1.05;;
42134;SDS011;28312;43.460;11.810;2022-10-20T03:14:01;1.75;;;1.00;;
42134;SDS011;28312;43.460;11.810;2022-10-20T03:18:05;1.83;;;0.90;;
42134;SDS011;28312;43.460;11.810;2022-10-20T03:22:09;1.90;;;1.00;;
42134;SDS011;28312;43.460;11.810;2022-10-20T03:26:13;1.63;;;0.82;;
42134;SDS011;28312;43.460;11.810;2022-10-20T03:30:17;1.48;;;0.80;;
42134;SDS011;28312;43.460;11.810;2022-10-20T03:34:21;1.73;;;1.00;;
42134;SDS011;28312;43.460;11.810;2022-10-20T03:38:24;1.70;;;0.90;;
42134;SDS011;28312;43.460;11.810;2022-10-20T03:42:28;1.98;;;0.70;;
42134;SDS011;28312;43.460;11.810;2022-10-20T03:46:31;4.65;;;1.05;;
42134;SDS011;28312;43.460;11.810;2022-10-20T03:50:38;2.72;;;1.10;;
42134;SDS011;28312;43.460;11.810;2022-10-20T03:54:43;1.48;;;0.85;;
42134;SDS011;28312;43.460;11.810;2022-10-20T03:58:47;1.30;;;0.80;;
42134;SDS011;28312;43.460;11.810;2022-10-20T04:02:50;0.75;;;0.55;;
42134;SDS011;28312;43.460;11.810;2022-10-20T04:06:54;3.35;;;1.60;;
42134;SDS011;28312;43.460;11.810;2022-10-20T04:10:58;1.48;;;0.77;;
42134;SDS011;28312;43.460;11.810;2022-10-20T04:15:03;2.25;;;1.00;;
42134;SDS011;28312;43.460;11.810;2022-10-20T04:19:07;4.28;;;1.88;;
42134;SDS011;28312;43.460;11.810;2022-10-20T04:23:11;3.90;;;1.90;;
42134;SDS011;28312;43.460;11.810;2022-10-20T04:27:14;1.67;;;0.90;;
42134;SDS011;28312;43.460;11.810;2022-10-20T04:31:18;1.35;;;0.80;;
42134;SDS011;28312;43.460;11.810;2022-10-20T04:35:21;3.22;;;0.95;;
42134;SDS011;28312;43.460;11.810;2022-10-20T04:39:25;1.80;;;1.05;;
42134;SDS011;28312;43.460;11.810;2022-10-20T04:43:29;1.00;;;0.70;;
42134;SDS011;28312;43.460;11.810;2022-10-20T04:47:33;1.73;;;0.82;;
42134;SDS011;28312;43.460;11.810;2022-10-20T04:51:39;1.10;;;0.70;;
42134;SDS011;28312;43.460;11.810;2022-10-20T04:55:43;2.10;;;0.95;;
42134;SDS011;28312;43.460;11.810;2022-10-20T04:59:56;2.58;;;0.70;;
42134;SDS011;28312;43.460;11.810;2022-10-20T05:04:00;1.55;;;0.82;;
42134;SDS011;28312;43.460;11.810;2022-10-20T05:08:03;1.73;;;0.70;;
42134;SDS011;28312;43.460;11.810;2022-10-20T05:12:07;1.15;;;0.73;;
42134;SDS011;28312;43.460;11.810;2022-10-20T05:16:11;1.25;;;0.73;;
42134;SDS011;28312;43.460;11.810;2022-10-20T05:20:15;1.27;;;0.80;;
42134;SDS011;28312;43.460;11.810;2022-10-20T05:24:18;1.55;;;0.80;;
42134;SDS011;28312;43.460;11.810;2022-10-20T05:28:25;3.50;;;1.13;;
42134;SDS011;28312;43.460;11.810;2022-10-20T05:32:29;1.52;;;0.90;;
42134;SDS011;28312;43.460;11.810;2022-10-20T05:36:32;1.60;;;0.77;;
42134;SDS011;28312;43.460;11.810;2022-10-20T05:40:36;1.55;;;0.90;;
42134;SDS011;28312;43.460;11.810;2022-10-20T05:44:40;1.58;;;0.73;;
42134;SDS011;28312;43.460;11.810;2022-10-20T05:48:44;1.40;;;0.80;;
42134;SDS011;28312;43.460;11.810;2022-10-20T05:52:48;1.63;;;1.00;;
42134;SDS011;28312;43.460;11.810;2022-10-20T05:56:52;1.55;;;0.85;;
42134;SDS011;28312;43.460;11.810;2022-10-20T06:05:22;1.98;;;0.98;;
42134;SDS011;28312;43.460;11.810;2022-10-20T06:09:26;1.88;;;0.90;;
42134;SDS011;28312;43.460;11.810;2022-10-20T06:13:30;2.50;;;0.98;;
42134;SDS011;28312;43.460;11.810;2022-10-20T06:17:34;1.33;;;0.50;;
42134;SDS011;28312;43.460;11.810;2022-10-20T06:21:38;0.93;;;0.70;;
42134;SDS011;28312;43.460;11.810;2022-10-20T06:25:41;2.30;;;0.90;;
42134;SDS011;28312;43.460;11.810;2022-10-20T06:29:45;1.83;;;0.85;;
42134;SDS011;28312;43.460;11.810;2022-10-20T06:33:49;1.83;;;0.98;;
42134;SDS011;28312;43.460;11.810;2022-10-20T06:37:53;1.48;;;0.88;;
42134;SDS011;28312;43.460;11.810;2022-10-20T06:41:56;1.58;;;0.85;;
42134;SDS011;28312;43.460;11.810;2022-10-20T06:46:07;3.00;;;1.00;;
42134;SDS011;28312;43.460;11.810;2022-10-20T06:50:13;1.52;;;0.85;;
42134;SDS011;28312;43.460;11.810;2022-10-20T06:54:17;1.52;;;1.10;;
42134;SDS011;28312;43.460;11.810;2022-10-20T06:58:21;2.13;;;1.20;;
42134;SDS011;28312;43.460;11.810;2022-10-20T07:02:25;1.55;;;0.85;;
42134;SDS011;28312;43.460;11.810;2022-10-20T07:06:29;1.65;;;0.85;;
42134;SDS011;28312;43.460;11.810;2022-10-20T07:10:37;1.33;;;0.80;;
42134;SDS011;28312;43.460;11.810;2022-10-20T07:14:41;1.75;;;0.90;;
42134;SDS011;28312;43.460;11.810;2022-10-20T07:18:46;1.30;;;0.73;;
42134;SDS011;28312;43.460;11.810;2022-10-20T07:22:50;1.02;;;0.63;;
42134;SDS011;28312;43.460;11.810;2022-10-20T07:26:53;0.95;;;0.63;;
42134;SDS011;28312;43.460;11.810;2022-10-20T07:31:03;1.80;;;1.00;;
42134;SDS011;28312;43.460;11.810;2022-10-20T07:35:09;1.27;;;0.70;;
42134;SDS011;28312;43.460;11.810;2022-10-20T07:39:13;1.40;;;0.77;;
42134;SDS011;28312;43.460;11.810;2022-10-20T07:43:17;2.53;;;1.15;;
42134;SDS011;28312;43.460;11.810;2022-10-20T07:47:20;2.13;;;1.08;;
42134;SDS011;28312;43.460;11.810;2022-10-20T07:51:25;1.58;;;0.70;;
42134;SDS011;28312;43.460;11.810;2022-10-20T07:59:40;2.47;;;1.00;;
42134;SDS011;28312;43.460;11.810;2022-10-20T08:03:44;1.75;;;0.75;;
42134;SDS011;28312;43.460;11.810;2022-10-20T08:07:47;2.17;;;1.02;;
42134;SDS011;28312;43.460;11.810;2022-10-20T08:11:51;1.65;;;1.02;;
42134;SDS011;28312;43.460;11.810;2022-10-20T08:15:57;1.42;;;0.82;;
42134;SDS011;28312;43.460;11.810;2022-10-20T08:20:13;1.90;;;1.13;;
42134;SDS011;28312;43.460;11.810;2022-10-20T08:24:23;2.63;;;1.30;;
42134;SDS011;28312;43.460;11.810;2022-10-20T08:28:27;2.40;;;0.88;;
42134;SDS011;28312;43.460;11.810;2022-10-20T08:32:30;2.03;;;1.10;;
42134;SDS011;28312;43.460;11.810;2022-10-20T08:36:37;1.80;;;1.00;;
42134;SDS011;28312;43.460;11.810;2022-10-20T08:40:41;2.70;;;0.80;;
42134;SDS011;28312;43.460;11.810;2022-10-20T08:44:46;1.30;;;0.75;;
42134;SDS011;28312;43.460;11.810;2022-10-20T08:48:50;2.45;;;1.48;;
42134;SDS011;28312;43.460;11.810;2022-10-20T08:52:55;2.07;;;1.17;;
42134;SDS011;28312;43.460;11.810;2022-10-20T08:57:10;2.35;;;1.38;;
42134;SDS011;28312;43.460;11.810;2022-10-20T09:01:29;1.95;;;1.05;;
42134;SDS011;28312;43.460;11.810;2022-10-20T09:05:36;3.80;;;1.45;;
42134;SDS011;28312;43.460;11.810;2022-10-20T09:09:45;2.45;;;1.40;;
42134;SDS011;28312;43.460;11.810;2022-10-20T09:13:49;2.00;;;0.88;;
42134;SDS011;28312;43.460;11.810;2022-10-20T09:17:57;2.13;;;1.35;;
42134;SDS011;28312;43.460;11.810;2022-10-20T09:22:05;2.08;;;0.80;;
42134;SDS011;28312;43.460;11.810;2022-10-20T09:26:10;3.85;;;1.20;;
42134;SDS011;28312;43.460;11.810;2022-10-20T09:30:36;2.60;;;1.30;;
42134;SDS011;28312;43.460;11.810;2022-10-20T09:34:43;1.58;;;0.90;;
42134;SDS011;28312;43.460;11.810;2022-10-20T09:38:48;4.50;;;1.30;;
42134;SDS011;28312;43.460;11.810;2022-10-20T09:42:58;2.22;;;1.17;;
42134;SDS011;28312;43.460;11.810;2022-10-20T09:47:20;3.03;;;1.25;;
42134;SDS011;28312;43.460;11.810;2022-10-20T09:51:27;1.58;;;0.80;;
42134;SDS011;28312;43.460;11.810;2022-10-20T09:55:36;1.58;;;1.10;;
42134;SDS011;28312;43.460;11.810;2022-10-20T09:59:50;2.55;;;1.30;;
42134;SDS011;28312;43.460;11.810;2022-10-20T10:03:56;2.38;;;1.00;;
42134;SDS011;28312;43.460;11.810;2022-10-20T10:08:03;2.25;;;1.40;;
42134;SDS011;28312;43.460;11.810;2022-10-20T10:16:16;2.03;;;0.98;;
42134;SDS011;28312;43.460;11.810;2022-10-20T10:20:27;2.35;;;1.30;;
42134;SDS011;28312;43.460;11.810;2022-10-20T10:28:48;1.90;;;0.80;;
42134;SDS011;28312;43.460;11.810;2022-10-20T10:33:00;1.92;;;1.10;;
42134;SDS011;28312;43.460;11.810;2022-10-20T10:37:04;1.60;;;0.82;;
42134;SDS011;28312;43.460;11.810;2022-10-20T10:49:48;1.40;;;0.70;;
42134;SDS011;28312;43.460;11.810;2022-10-20T10:54:36;1.60;;;1.05;;
42134;SDS011;28312;43.460;11.810;2022-10-20T11:03:15;1.83;;;1.00;;
42134;SDS011;28312;43.460;11.810;2022-10-20T11:16:23;1.58;;;0.80;;
42134;SDS011;28312;43.460;11.810;2022-10-20T11:20:37;1.20;;;0.70;;
42134;SDS011;28312;43.460;11.810;2022-10-20T11:29:14;1.23;;;0.70;;
42134;SDS011;28312;43.460;11.810;2022-10-20T11:33:38;1.63;;;0.93;;
42134;SDS011;28312;43.460;11.810;2022-10-20T11:42:17;1.30;;;0.80;;
42134;SDS011;28312;43.460;11.810;2022-10-20T11:47:10;6.10;;;2.88;;
42134;SDS011;28312;43.460;11.810;2022-10-20T12:08:56;2.58;;;1.40;;
42134;SDS011;28312;43.460;11.810;2022-10-20T12:22:37;3.33;;;1.25;;
42134;SDS011;28312;43.460;11.810;2022-10-20T12:31:08;2.10;;;1.13;;
42134;SDS011;28312;43.460;11.810;2022-10-20T12:39:18;1.15;;;0.80;;
42134;SDS011;28312;43.460;11.810;2022-10-20T12:43:33;1.25;;;0.77;;
42134;SDS011;28312;43.460;11.810;2022-10-20T12:47:47;1.00;;;0.63;;
42134;SDS011;28312;43.460;11.810;2022-10-20T12:51:56;1.90;;;1.00;;
42134;SDS011;28312;43.460;11.810;2022-10-20T12:56:08;1.63;;;0.88;;
42134;SDS011;28312;43.460;11.810;2022-10-20T13:09:25;4.22;;;1.48;;
42134;SDS011;28312;43.460;11.810;2022-10-20T13:13:35;1.90;;;0.75;;
42134;SDS011;28312;43.460;11.810;2022-10-20T13:17:57;1.77;;;1.02;;
42134;SDS011;28312;43.460;11.810;2022-10-20T13:26:49;1.90;;;0.73;;
42134;SDS011;28312;43.460;11.810;2022-10-20T13:35:27;2.47;;;1.00;;
42134;SDS011;28312;43.460;11.810;2022-10-20T13:39:46;1.13;;;0.70;;
42134;SDS011;28312;43.460;11.810;2022-10-20T13:44:12;3.63;;;1.35;;
42134;SDS011;28312;43.460;11.810;2022-10-20T13:48:52;2.38;;;1.05;;
42134;SDS011;28312;43.460;11.810;2022-10-20T13:53:33;1.45;;;0.80;;
42134;SDS011;28312;43.460;11.810;2022-10-20T13:57:45;4.25;;;1.13;;
42134;SDS011;28312;43.460;11.810;2022-10-20T14:02:02;2.00;;;0.98;;
42134;SDS011;28312;43.460;11.810;2022-10-20T14:06:35;1.85;;;0.82;;
42134;SDS011;28312;43.460;11.810;2022-10-20T14:14:56;1.98;;;1.15;;
42134;SDS011;28312;43.460;11.810;2022-10-20T14:19:09;2.00;;;1.42;;
42134;SDS011;28312;43.460;11.810;2022-10-20T14:23:14;1.58;;;0.73;;
42134;SDS011;28312;43.460;11.810;2022-10-20T14:27:18;4.30;;;1.83;;
42134;SDS011;28312;43.460;11.810;2022-10-20T14:31:24;2.05;;;1.10;;
42134;SDS011;28312;43.460;11.810;2022-10-20T14:35:30;5.35;;;1.85;;
42134;SDS011;28312;43.460;11.810;2022-10-20T14:39:48;4.28;;;1.40;;
42134;SDS011;28312;43.460;11.810;2022-10-20T14:43:54;2.72;;;1.08;;
42134;SDS011;28312;43.460;11.810;2022-10-20T14:48:11;1.47;;;0.93;;
42134;SDS011;28312;43.460;11.810;2022-10-20T14:56:25;1.80;;;1.20;;
42134;SDS011;28312;43.460;11.810;2022-10-20T15:00:30;1.65;;;1.02;;
42134;SDS011;28312;43.460;11.810;2022-10-20T15:04:37;1.67;;;0.90;;
42134;SDS011;28312;43.460;11.810;2022-10-20T15:08:50;2.35;;;1.20;;
42134;SDS011;28312;43.460;11.810;2022-10-20T15:12:57;1.65;;;0.90;;
42134;SDS011;28312;43.460;11.810;2022-10-20T15:17:00;1.98;;;0.88;;
42134;SDS011;28312;43.460;11.810;2022-10-20T15:21:06;4.18;;;1.35;;
42134;SDS011;28312;43.460;11.810;2022-10-20T15:25:10;2.58;;;1.10;;
42134;SDS011;28312;43.460;11.810;2022-10-20T15:29:14;2.90;;;0.93;;
42134;SDS011;28312;43.460;11.810;2022-10-20T15:33:17;2.10;;;0.70;;
42134;SDS011;28312;43.460;11.810;2022-10-20T15:37:21;3.00;;;0.70;;
42134;SDS011;28312;43.460;11.810;2022-10-20T15:41:25;1.23;;;0.73;;
42134;SDS011;28312;43.460;11.810;2022-10-20T15:45:33;1.75;;;0.98;;
42134;SDS011;28312;43.460;11.810;2022-10-20T15:49:40;3.13;;;0.85;;
42134;SDS011;28312;43.460;11.810;2022-10-20T15:53:43;1.73;;;0.90;;
42134;SDS011;28312;43.460;11.810;2022-10-20T15:57:50;2.15;;;1.10;;
42134;SDS011;28312;43.460;11.810;2022-10-20T16:01:55;5.27;;;2.77;;
42134;SDS011;28312;43.460;11.810;2022-10-20T16:05:59;5.30;;;2.70;;
42134;SDS011;28312;43.460;11.810;2022-10-20T16:10:06;6.68;;;2.70;;
42134;SDS011;28312;43.460;11.810;2022-10-20T16:14:11;5.55;;;2.90;;
42134;SDS011;28312;43.460;11.810;2022-10-20T16:18:15;4.88;;;2.88;;
42134;SDS011;28312;43.460;11.810;2022-10-20T16:22:18;6.70;;;4.38;;
42134;SDS011;28312;43.460;11.810;2022-10-20T16:26:22;7.47;;;4.03;;
42134;SDS011;28312;43.460;11.810;2022-10-20T16:30:26;7.57;;;4.88;;
42134;SDS011;28312;43.460;11.810;2022-10-20T16:34:30;6.70;;;4.32;;
42134;SDS011;28312;43.460;11.810;2022-10-20T16:38:33;6.50;;;4.40;;
42134;SDS011;28312;43.460;11.810;2022-10-20T16:42:41;7.43;;;4.85;;
42134;SDS011;28312;43.460;11.810;2022-10-20T16:46:45;6.82;;;4.32;;
42134;SDS011;28312;43.460;11.810;2022-10-20T16:50:48;8.68;;;4.95;;
42134;SDS011;28312;43.460;11.810;2022-10-20T16:54:53;8.38;;;4.10;;
42134;SDS011;28312;43.460;11.810;2022-10-20T16:58:57;7.57;;;4.35;;
42134;SDS011;28312;43.460;11.810;2022-10-20T17:03:01;10.30;;;5.25;;
42134;SDS011;28312;43.460;11.810;2022-10-20T17:07:04;6.88;;;3.63;;
42134;SDS011;28312;43.460;11.810;2022-10-20T17:11:11;9.52;;;4.00;;
42134;SDS011;28312;43.460;11.810;2022-10-20T17:15:19;6.57;;;3.28;;
42134;SDS011;28312;43.460;11.810;2022-10-20T17:19:23;4.68;;;3.42;;
42134;SDS011;28312;43.460;11.810;2022-10-20T17:23:30;5.38;;;3.53;;
42134;SDS011;28312;43.460;11.810;2022-10-20T17:27:41;4.57;;;2.45;;
42134;SDS011;28312;43.460;11.810;2022-10-20T17:31:45;4.97;;;3.10;;
42134;SDS011;28312;43.460;11.810;2022-10-20T17:35:48;5.97;;;3.20;;
42134;SDS011;28312;43.460;11.810;2022-10-20T17:39:52;4.47;;;3.25;;
42134;SDS011;28312;43.460;11.810;2022-10-20T17:43:57;5.40;;;2.28;;
42134;SDS011;28312;43.460;11.810;2022-10-20T17:48:03;8.05;;;4.05;;
42134;SDS011;28312;43.460;11.810;2022-10-20T17:52:06;4.72;;;2.10;;
42134;SDS011;28312;43.460;11.810;2022-10-20T17:56:11;6.88;;;2.75;;
42134;SDS011;28312;43.460;11.810;2022-10-20T18:00:17;5.80;;;2.30;;
42134;SDS011;28312;43.460;11.810;2022-10-20T18:04:39;3.47;;;2.08;;
42134;SDS011;28312;43.460;11.810;2022-10-20T18:08:42;4.75;;;2.00;;
42134;SDS011;28312;43.460;11.810;2022-10-20T18:12:47;3.35;;;2.00;;
42134;SDS011;28312;43.460;11.810;2022-10-20T18:16:50;4.20;;;2.10;;
42134;SDS011;28312;43.460;11.810;2022-10-20T18:20:55;4.45;;;2.17;;
42134;SDS011;28312;43.460;11.810;2022-10-20T18:24:59;3.08;;;1.77;;
42134;SDS011;28312;43.460;11.810;2022-10-20T18:29:03;3.53;;;1.88;;
42134;SDS011;28312;43.460;11.810;2022-10-20T18:33:08;4.23;;;2.10;;
42134;SDS011;28312;43.460;11.810;2022-10-20T18:37:12;2.92;;;1.63;;
42134;SDS011;28312;43.460;11.810;2022-10-20T18:41:23;2.28;;;1.58;;
42134;SDS011;28312;43.460;11.810;2022-10-20T18:45:28;2.80;;;1.13;;
42134;SDS011;28312;43.460;11.810;2022-10-20T18:49:32;4.07;;;2.10;;
42134;SDS011;28312;43.460;11.810;2022-10-20T18:53:37;2.60;;;1.60;;
42134;SDS011;28312;43.460;11.810;2022-10-20T18:57:42;2.53;;;1.48;;
42134;SDS011;28312;43.460;11.810;2022-10-20T19:01:45;3.38;;;1.60;;
42134;SDS011;28312;43.460;11.810;2022-10-20T19:05:55;4.80;;;1.80;;
42134;SDS011;28312;43.460;11.810;2022-10-20T19:10:02;3.60;;;1.98;;
42134;SDS011;28312;43.460;11.810;2022-10-20T19:14:06;3.60;;;1.77;;
42134;SDS011;28312;43.460;11.810;2022-10-20T19:18:11;15.77;;;10.18;;
42134;SDS011;28312;43.460;11.810;2022-10-20T19:22:15;4.82;;;2.38;;
42134;SDS011;28312;43.460;11.810;2022-10-20T19:26:23;3.67;;;1.50;;
42134;SDS011;28312;43.460;11.810;2022-10-20T19:30:31;2.72;;;1.48;;
42134;SDS011;28312;43.460;11.810;2022-10-20T19:34:37;2.40;;;1.35;;
42134;SDS011;28312;43.460;11.810;2022-10-20T19:38:41;2.53;;;1.52;;
42134;SDS011;28312;43.460;11.810;2022-10-20T19:42:45;3.67;;;1.45;;
42134;SDS011;28312;43.460;11.810;2022-10-20T19:46:49;3.35;;;1.30;;
42134;SDS011;28312;43.460;11.810;2022-10-20T19:50:53;2.53;;;1.30;;
42134;SDS011;28312;43.460;11.810;2022-10-20T19:54:57;2.20;;;1.02;;
42134;SDS011;28312;43.460;11.810;2022-10-20T19:59:03;3.35;;;1.40;;
42134;SDS011;28312;43.460;11.810;2022-10-20T20:03:08;6.40;;;2.00;;
42134;SDS011;28312;43.460;11.810;2022-10-20T20:07:11;7.15;;;2.53;;
42134;SDS011;28312;43.460;11.810;2022-10-20T20:11:15;3.03;;;1.70;;
42134;SDS011;28312;43.460;11.810;2022-10-20T20:15:28;2.00;;;1.25;;
42134;SDS011;28312;43.460;11.810;2022-10-20T20:19:33;3.00;;;1.77;;
42134;SDS011;28312;43.460;11.810;2022-10-20T20:23:37;3.55;;;1.75;;
42134;SDS011;28312;43.460;11.810;2022-10-20T20:27:59;3.40;;;1.95;;
42134;SDS011;28312;43.460;11.810;2022-10-20T20:32:03;3.03;;;1.65;;
42134;SDS011;28312;43.460;11.810;2022-10-20T20:36:07;5.75;;;1.98;;
42134;SDS011;28312;43.460;11.810;2022-10-20T20:40:12;4.68;;;1.73;;
42134;SDS011;28312;43.460;11.810;2022-10-20T20:44:15;3.20;;;1.70;;
42134;SDS011;28312;43.460;11.810;2022-10-20T20:48:19;4.93;;;2.05;;
42134;SDS011;28312;43.460;11.810;2022-10-20T20:52:23;4.30;;;1.80;;
42134;SDS011;28312;43.460;11.810;2022-10-20T20:56:27;3.17;;;1.95;;
42134;SDS011;28312;43.460;11.810;2022-10-20T21:00:31;3.08;;;1.17;;
42134;SDS011;28312;43.460;11.810;2022-10-20T21:04:35;3.13;;;1.70;;
42134;SDS011;28312;43.460;11.810;2022-10-20T21:08:39;3.80;;;1.27;;
42134;SDS011;28312;43.460;11.810;2022-10-20T21:12:44;1.83;;;1.00;;
42134;SDS011;28312;43.460;11.810;2022-10-20T21:16:50;3.77;;;1.80;;
42134;SDS011;28312;43.460;11.810;2022-10-20T21:20:54;3.28;;;1.13;;
42134;SDS011;28312;43.460;11.810;2022-10-20T21:24:57;2.97;;;1.52;;
42134;SDS011;28312;43.460;11.810;2022-10-20T21:29:01;2.58;;;1.30;;
42134;SDS011;28312;43.460;11.810;2022-10-20T21:33:05;5.40;;;1.63;;
42134;SDS011;28312;43.460;11.810;2022-10-20T21:37:10;4.40;;;2.10;;
42134;SDS011;28312;43.460;11.810;2022-10-20T21:41:16;2.90;;;1.50;;
42134;SDS011;28312;43.460;11.810;2022-10-20T21:45:21;2.33;;;1.30;;
42134;SDS011;28312;43.460;11.810;2022-10-20T21:49:24;2.17;;;1.42;;
42134;SDS011;28312;43.460;11.810;2022-10-20T21:53:28;4.93;;;1.42;;
42134;SDS011;28312;43.460;11.810;2022-10-20T21:57:33;4.68;;;1.45;;
42134;SDS011;28312;43.460;11.810;2022-10-20T22:01:37;4.80;;;1.80;;
42134;SDS011;28312;43.460;11.810;2022-10-20T22:05:41;2.53;;;1.20;;
42134;SDS011;28312;43.460;11.810;2022-10-20T22:09:45;2.45;;;1.20;;
42134;SDS011;28312;43.460;11.810;2022-10-20T22:13:49;5.65;;;1.65;;
42134;SDS011;28312;43.460;11.810;2022-10-20T22:17:53;2.10;;;1.05;;
42134;SDS011;28312;43.460;11.810;2022-10-20T22:21:56;1.80;;;1.02;;
42134;SDS011;28312;43.460;11.810;2022-10-20T22:26:01;3.50;;;1.17;;
42134;SDS011;28312;43.460;11.810;2022-10-20T22:30:06;2.63;;;1.25;;
42134;SDS011;28312;43.460;11.810;2022-10-20T22:34:10;2.65;;;1.02;;
42134;SDS011;28312;43.460;11.810;2022-10-20T22:38:13;2.95;;;1.40;;
42134;SDS011;28312;43.460;11.810;2022-10-20T22:42:17;3.20;;;1.65;;
42134;SDS011;28312;43.460;11.810;2022-10-20T22:46:25;2.25;;;1.23;;
42134;SDS011;28312;43.460;11.810;2022-10-20T22:50:29;3.42;;;1.20;;
42134;SDS011;28312;43.460;11.810;2022-10-20T22:54:32;2.63;;;1.13;;
42134;SDS011;28312;43.460;11.810;2022-10-20T22:58:36;2.25;;;1.00;;
42134;SDS011;28312;43.460;11.810;2022-10-20T23:02:41;3.13;;;1.33;;
42134;SDS011;28312;43.460;11.810;2022-10-20T23:06:44;2.10;;;1.10;;
42134;SDS011;28312;43.460;11.810;2022-10-20T23:10:54;3.20;;;1.30;;
42134;SDS011;28312;43.460;11.810;2022-10-20T23:14:59;2.50;;;1.10;;
42134;SDS011;28312;43.460;11.810;2022-10-20T23:19:04;2.70;;;1.23;;
42134;SDS011;28312;43.460;11.810;2022-10-20T23:23:08;2.50;;;1.27;;
42134;SDS011;28312;43.460;11.810;2022-10-20T23:27:11;2.05;;;0.90;;
42134;SDS011;28312;43.460;11.810;2022-10-20T23:31:16;2.53;;;0.88;;
42134;SDS011;28312;43.460;11.810;2022-10-20T23:35:21;3.30;;;1.20;;
42134;SDS011;28312;43.460;11.810;2022-10-20T23:39:24;2.17;;;1.33;;
42134;SDS011;28312;43.460;11.810;2022-10-20T23:43:28;1.70;;;1.00;;
42134;SDS011;28312;43.460;11.810;2022-10-20T23:47:32;3.13;;;1.13;;
42134;SDS011;28312;43.460;11.810;2022-10-20T23:51:36;2.33;;;1.30;;
42134;SDS011;28312;43.460;11.810;2022-10-20T23:55:40;4.88;;;1.20;;
42134;SDS011;28312;43.460;11.810;2022-10-20T23:59:45;2.90;;;1.40;;
